FR1542 LEBL-LEPA
Flight info
| Callsign | FR1542 |
|---|---|
| Flight time | 0h 37m |
| Altitude | 19000 |
| Route | LARPA5D LARPA N859 TOLSO TOLSO2P |
| Aircraft | B738/M-SDE2E3FGHIRWXY/LB1 |
Departure
| Time | 2026-05-05 20:32 |
|---|---|
| Airport | Josep Tarradellas Barcelona-El Prat Airport (LEBL) |
Arrival
| Time | 2026-05-05 21:09 |
|---|---|
| Airport | Palma de Mallorca Airport (LEPA) |
| Time | Latitude | Longitude | Altitude | Speed | Heading |
|---|---|---|---|---|---|
| 2026-05-05 20:23 | 41.30024 | 2.07637 | 25 ft | 0 kts | 67° |
| 2026-05-05 20:25 | 41.30026 | 2.07645 | 25 ft | 2 kts | 66° |
| 2026-05-05 20:25 | 41.30036 | 2.07677 | 26 ft | 5 kts | 66° |
| 2026-05-05 20:25 | 41.30058 | 2.07742 | 27 ft | 8 kts | 66° |
| 2026-05-05 20:25 | 41.30086 | 2.07822 | 27 ft | 10 kts | 65° |
| 2026-05-05 20:26 | 41.30119 | 2.07917 | 28 ft | 12 kts | 65° |
| 2026-05-05 20:26 | 41.30158 | 2.08027 | 28 ft | 14 kts | 64° |
| 2026-05-05 20:26 | 41.30208 | 2.08163 | 26 ft | 14 kts | 66° |
| 2026-05-05 20:26 | 41.30245 | 2.08278 | 25 ft | 13 kts | 67° |
| 2026-05-05 20:27 | 41.30289 | 2.08423 | 23 ft | 0 kts | 74° |
| 2026-05-05 20:27 | 41.30289 | 2.08424 | 23 ft | 0 kts | 74° |
| 2026-05-05 20:27 | 41.30289 | 2.08428 | 23 ft | 1 kts | 105° |
| 2026-05-05 20:28 | 41.30260 | 2.08465 | 21 ft | 7 kts | 127° |
| 2026-05-05 20:28 | 41.30273 | 2.08560 | 21 ft | 13 kts | 65° |
| 2026-05-05 20:28 | 41.30322 | 2.08703 | 19 ft | 21 kts | 64° |
| 2026-05-05 20:28 | 41.30387 | 2.08890 | 18 ft | 23 kts | 65° |
| 2026-05-05 20:29 | 41.30454 | 2.09071 | 18 ft | 16 kts | 64° |
| 2026-05-05 20:29 | 41.30470 | 2.09114 | 17 ft | 0 kts | 64° |
| 2026-05-05 20:29 | 41.30478 | 2.09138 | 16 ft | 6 kts | 64° |
| 2026-05-05 20:29 | 41.30508 | 2.09221 | 16 ft | 13 kts | 65° |
| 2026-05-05 20:30 | 41.30552 | 2.09352 | 15 ft | 16 kts | 65° |
| 2026-05-05 20:30 | 41.30603 | 2.09501 | 12 ft | 18 kts | 66° |
| 2026-05-05 20:30 | 41.30630 | 2.09654 | 12 ft | 15 kts | 124° |
| 2026-05-05 20:30 | 41.30555 | 2.09692 | 12 ft | 10 kts | 162° |
| 2026-05-05 20:31 | 41.30489 | 2.09723 | 12 ft | 10 kts | 158° |
| 2026-05-05 20:31 | 41.30424 | 2.09760 | 12 ft | 10 kts | 156° |
| 2026-05-05 20:31 | 41.30358 | 2.09751 | 12 ft | 10 kts | 218° |
| 2026-05-05 20:31 | 41.30276 | 2.09516 | 12 ft | 66 kts | 247° |
| 2026-05-05 20:32 | 41.29962 | 2.08598 | 19 ft | 149 kts | 246° |
| 2026-05-05 20:32 | 41.29467 | 2.07195 | 392 ft | 181 kts | 244° |
| 2026-05-05 20:32 | 41.28952 | 2.05729 | 1433 ft | 184 kts | 250° |
| 2026-05-05 20:32 | 41.28426 | 2.04014 | 1877 ft | 209 kts | 249° |
| 2026-05-05 20:33 | 41.27848 | 2.02264 | 2702 ft | 215 kts | 247° |
| 2026-05-05 20:33 | 41.27202 | 2.00410 | 3475 ft | 227 kts | 246° |
| 2026-05-05 20:33 | 41.26534 | 1.98504 | 4330 ft | 235 kts | 246° |
| 2026-05-05 20:33 | 41.25854 | 1.96546 | 5335 ft | 236 kts | 246° |
| 2026-05-05 20:34 | 41.25174 | 1.94577 | 6290 ft | 241 kts | 246° |
| 2026-05-05 20:34 | 41.24463 | 1.92512 | 7082 ft | 254 kts | 247° |
| 2026-05-05 20:34 | 41.23728 | 1.90374 | 7998 ft | 260 kts | 247° |
| 2026-05-05 20:34 | 41.22974 | 1.88149 | 8674 ft | 266 kts | 249° |
| 2026-05-05 20:35 | 41.22419 | 1.85807 | 8911 ft | 268 kts | 259° |
| 2026-05-05 20:35 | 41.22158 | 1.83374 | 8913 ft | 266 kts | 265° |
| 2026-05-05 20:35 | 41.21997 | 1.80945 | 8912 ft | 263 kts | 265° |
| 2026-05-05 20:35 | 41.21868 | 1.78512 | 8909 ft | 265 kts | 270° |
| 2026-05-05 20:36 | 41.22074 | 1.76107 | 8910 ft | 264 kts | 283° |
| 2026-05-05 20:36 | 41.22766 | 1.73867 | 8912 ft | 267 kts | 299° |
| 2026-05-05 20:36 | 41.23936 | 1.71928 | 8947 ft | 277 kts | 314° |
| 2026-05-05 20:36 | 41.25533 | 1.70406 | 9854 ft | 286 kts | 329° |
| 2026-05-05 20:37 | 41.27400 | 1.69456 | 10677 ft | 298 kts | 343° |
| 2026-05-05 20:37 | 41.28775 | 1.69149 | 11143 ft | 309 kts | 351° |
| 2026-05-05 20:37 | 41.31665 | 1.69780 | 12240 ft | 327 kts | 20° |
| 2026-05-05 20:37 | 41.33609 | 1.71333 | 13053 ft | 337 kts | 37° |
| 2026-05-05 20:38 | 41.35247 | 1.73588 | 13879 ft | 345 kts | 51° |
| 2026-05-05 20:38 | 41.36545 | 1.76312 | 14663 ft | 352 kts | 65° |
| 2026-05-05 20:38 | 41.37178 | 1.79442 | 15419 ft | 357 kts | 87° |
| 2026-05-05 20:38 | 41.37118 | 1.82747 | 16189 ft | 359 kts | 98° |
| 2026-05-05 20:39 | 41.36690 | 1.86055 | 16911 ft | 364 kts | 104° |
| 2026-05-05 20:39 | 41.36243 | 1.89333 | 17705 ft | 368 kts | 102° |
| 2026-05-05 20:39 | 41.35863 | 1.92735 | 18431 ft | 374 kts | 101° |
| 2026-05-05 20:39 | 41.35529 | 1.96157 | 18862 ft | 379 kts | 102° |
| 2026-05-05 20:40 | 41.34988 | 1.99580 | 18915 ft | 376 kts | 111° |
| 2026-05-05 20:40 | 41.33850 | 2.02628 | 18917 ft | 361 kts | 134° |
| 2026-05-05 20:40 | 41.32044 | 2.04795 | 18916 ft | 350 kts | 155° |
| 2026-05-05 20:40 | 41.29788 | 2.06042 | 18910 ft | 349 kts | 172° |
| 2026-05-05 20:41 | 41.27425 | 2.06694 | 18912 ft | 350 kts | 174° |
| 2026-05-05 20:41 | 41.25028 | 2.07304 | 18907 ft | 348 kts | 176° |
| 2026-05-05 20:41 | 41.22664 | 2.07638 | 18906 ft | 342 kts | 185° |
| 2026-05-05 20:41 | 41.20321 | 2.07251 | 18915 ft | 335 kts | 200° |
| 2026-05-05 20:42 | 41.18153 | 2.06144 | 18918 ft | 331 kts | 209° |
| 2026-05-05 20:42 | 41.16120 | 2.04807 | 18906 ft | 329 kts | 211° |
| 2026-05-05 20:42 | 41.14080 | 2.03388 | 18910 ft | 330 kts | 211° |
| 2026-05-05 20:42 | 41.12013 | 2.02079 | 18914 ft | 332 kts | 205° |
| 2026-05-05 20:43 | 41.09757 | 2.01321 | 18908 ft | 342 kts | 192° |
| 2026-05-05 20:43 | 41.07363 | 2.01245 | 18912 ft | 345 kts | 181° |
| 2026-05-05 20:43 | 41.04971 | 2.01724 | 18911 ft | 353 kts | 173° |
| 2026-05-05 20:43 | 41.02576 | 2.02646 | 18908 ft | 357 kts | 166° |
| 2026-05-05 20:44 | 41.00320 | 2.03982 | 18906 ft | 361 kts | 158° |
| 2026-05-05 20:44 | 40.98132 | 2.05643 | 18899 ft | 366 kts | 154° |
| 2026-05-05 20:44 | 40.95973 | 2.07464 | 18898 ft | 367 kts | 153° |
| 2026-05-05 20:44 | 40.93832 | 2.09318 | 18909 ft | 368 kts | 153° |
| 2026-05-05 20:45 | 40.89554 | 2.12948 | 18896 ft | 364 kts | 154° |
| 2026-05-05 20:45 | 40.87432 | 2.14709 | 18911 ft | 365 kts | 154° |
| 2026-05-05 20:45 | 40.85259 | 2.16493 | 18913 ft | 366 kts | 155° |
| 2026-05-05 20:46 | 40.83113 | 2.18243 | 18902 ft | 366 kts | 155° |
| 2026-05-05 20:46 | 40.80953 | 2.20004 | 18899 ft | 363 kts | 155° |
| 2026-05-05 20:46 | 40.78781 | 2.21773 | 18903 ft | 363 kts | 155° |
| 2026-05-05 20:46 | 40.76642 | 2.23508 | 18906 ft | 366 kts | 155° |
| 2026-05-05 20:47 | 40.74460 | 2.25279 | 18904 ft | 365 kts | 155° |
| 2026-05-05 20:47 | 40.72339 | 2.27005 | 18909 ft | 361 kts | 156° |
| 2026-05-05 20:47 | 40.70190 | 2.28748 | 18911 ft | 365 kts | 156° |
| 2026-05-05 20:47 | 40.68018 | 2.30507 | 18905 ft | 363 kts | 156° |
| 2026-05-05 20:48 | 40.65884 | 2.32233 | 18921 ft | 362 kts | 156° |
| 2026-05-05 20:48 | 40.63680 | 2.33899 | 18911 ft | 360 kts | 159° |
| 2026-05-05 20:48 | 40.61715 | 2.35095 | 18906 ft | 354 kts | 165° |
| 2026-05-05 20:49 | 40.60778 | 2.35558 | 18907 ft | 352 kts | 168° |
| 2026-05-05 20:49 | 40.58812 | 2.36378 | 18907 ft | 349 kts | 171° |
| 2026-05-05 20:49 | 40.56475 | 2.37196 | 18903 ft | 346 kts | 173° |
| 2026-05-05 20:49 | 40.54116 | 2.37963 | 18911 ft | 349 kts | 174° |
| 2026-05-05 20:50 | 40.51790 | 2.38720 | 18910 ft | 347 kts | 173° |
| 2026-05-05 20:50 | 40.50229 | 2.39240 | 18908 ft | 347 kts | 173° |
| 2026-05-05 20:50 | 40.47087 | 2.40307 | 18907 ft | 349 kts | 173° |
| 2026-05-05 20:50 | 40.44764 | 2.41106 | 18900 ft | 347 kts | 173° |
| 2026-05-05 20:51 | 40.42423 | 2.41917 | 18903 ft | 349 kts | 173° |
| 2026-05-05 20:51 | 40.40085 | 2.42732 | 18897 ft | 347 kts | 173° |
| 2026-05-05 20:51 | 40.37740 | 2.43548 | 18902 ft | 348 kts | 173° |
| 2026-05-05 20:51 | 40.35419 | 2.44357 | 18904 ft | 344 kts | 173° |
| 2026-05-05 20:52 | 40.34228 | 2.44772 | 18904 ft | 345 kts | 173° |
| 2026-05-05 20:52 | 40.31916 | 2.45573 | 18900 ft | 346 kts | 173° |
| 2026-05-05 20:52 | 40.29583 | 2.46381 | 18904 ft | 344 kts | 173° |
| 2026-05-05 20:52 | 40.27254 | 2.47188 | 18902 ft | 346 kts | 173° |
| 2026-05-05 20:53 | 40.24936 | 2.47989 | 18898 ft | 345 kts | 173° |
| 2026-05-05 20:53 | 40.22631 | 2.48876 | 18903 ft | 348 kts | 168° |
| 2026-05-05 20:53 | 40.20457 | 2.50338 | 18883 ft | 361 kts | 151° |
| 2026-05-05 20:53 | 40.18696 | 2.52720 | 18680 ft | 369 kts | 132° |
| 2026-05-05 20:54 | 40.17365 | 2.55558 | 18199 ft | 371 kts | 127° |
| 2026-05-05 20:54 | 40.16121 | 2.58503 | 17693 ft | 371 kts | 125° |
| 2026-05-05 20:54 | 40.14885 | 2.61479 | 17222 ft | 368 kts | 125° |
| 2026-05-05 20:54 | 40.13670 | 2.64362 | 16769 ft | 364 kts | 126° |
| 2026-05-05 20:55 | 40.13252 | 2.65339 | 16584 ft | 364 kts | 126° |
| 2026-05-05 20:55 | 40.12609 | 2.66830 | 16364 ft | 361 kts | 127° |
| 2026-05-05 20:55 | 40.11591 | 2.69169 | 16009 ft | 358 kts | 126° |
| 2026-05-05 20:56 | 40.10851 | 2.70851 | 15714 ft | 357 kts | 126° |
| 2026-05-05 20:56 | 40.09651 | 2.73567 | 15520 ft | 345 kts | 126° |
| 2026-05-05 20:56 | 40.08472 | 2.76236 | 15331 ft | 334 kts | 127° |
| 2026-05-05 20:56 | 40.07321 | 2.78828 | 14997 ft | 329 kts | 126° |
| 2026-05-05 20:57 | 40.06166 | 2.81417 | 14603 ft | 326 kts | 126° |
| 2026-05-05 20:57 | 40.05035 | 2.83948 | 14175 ft | 325 kts | 126° |
| 2026-05-05 20:57 | 40.03904 | 2.86482 | 13793 ft | 322 kts | 126° |
| 2026-05-05 20:57 | 40.02790 | 2.88980 | 13415 ft | 319 kts | 126° |
| 2026-05-05 20:58 | 40.01662 | 2.91510 | 12958 ft | 319 kts | 125° |
| 2026-05-05 20:58 | 40.00562 | 2.93974 | 12547 ft | 318 kts | 124° |
| 2026-05-05 20:58 | 39.99446 | 2.96471 | 12124 ft | 316 kts | 124° |
| 2026-05-05 20:58 | 39.98357 | 2.98916 | 11755 ft | 313 kts | 123° |
| 2026-05-05 20:59 | 39.97488 | 3.01487 | 11583 ft | 307 kts | 112° |
| 2026-05-05 20:59 | 39.96862 | 3.04124 | 11208 ft | 306 kts | 108° |
| 2026-05-05 20:59 | 39.96238 | 3.06780 | 10802 ft | 305 kts | 115° |
| 2026-05-05 20:59 | 39.95185 | 3.09105 | 10403 ft | 298 kts | 134° |
| 2026-05-05 21:00 | 39.93624 | 3.10833 | 10041 ft | 289 kts | 155° |
| 2026-05-05 21:00 | 39.91818 | 3.11793 | 9679 ft | 281 kts | 168° |
| 2026-05-05 21:00 | 39.89916 | 3.12426 | 9293 ft | 279 kts | 171° |
| 2026-05-05 21:00 | 39.88049 | 3.12978 | 8941 ft | 277 kts | 172° |
| 2026-05-05 21:01 | 39.86153 | 3.13518 | 8578 ft | 276 kts | 172° |
| 2026-05-05 21:01 | 39.84283 | 3.14005 | 8196 ft | 273 kts | 177° |
| 2026-05-05 21:01 | 39.82421 | 3.13896 | 7931 ft | 263 kts | 198° |
| 2026-05-05 21:01 | 39.80745 | 3.13041 | 7931 ft | 263 kts | 210° |
| 2026-05-05 21:02 | 39.79136 | 3.11949 | 7922 ft | 261 kts | 212° |
| 2026-05-05 21:02 | 39.77526 | 3.10813 | 7903 ft | 258 kts | 212° |
| 2026-05-05 21:02 | 39.75979 | 3.09723 | 7714 ft | 250 kts | 212° |
| 2026-05-05 21:02 | 39.74471 | 3.08667 | 7348 ft | 242 kts | 212° |
| 2026-05-05 21:03 | 39.73033 | 3.07666 | 7142 ft | 228 kts | 212° |
| 2026-05-05 21:03 | 39.71684 | 3.06735 | 6918 ft | 216 kts | 212° |
| 2026-05-05 21:03 | 39.70326 | 3.05800 | 6298 ft | 224 kts | 212° |
| 2026-05-05 21:03 | 39.68970 | 3.04854 | 5820 ft | 224 kts | 212° |
| 2026-05-05 21:04 | 39.67677 | 3.03749 | 5356 ft | 220 kts | 229° |
| 2026-05-05 21:04 | 39.66891 | 3.02115 | 4909 ft | 215 kts | 249° |
| 2026-05-05 21:04 | 39.66335 | 3.00340 | 4494 ft | 209 kts | 248° |
| 2026-05-05 21:04 | 39.65719 | 2.98670 | 4062 ft | 206 kts | 244° |
| 2026-05-05 21:05 | 39.65041 | 2.97033 | 3634 ft | 202 kts | 243° |
| 2026-05-05 21:05 | 39.64381 | 2.95473 | 3302 ft | 195 kts | 243° |
| 2026-05-05 21:05 | 39.63746 | 2.93958 | 3006 ft | 188 kts | 243° |
| 2026-05-05 21:05 | 39.63140 | 2.92505 | 2820 ft | 180 kts | 243° |
| 2026-05-05 21:06 | 39.62543 | 2.91075 | 2594 ft | 180 kts | 243° |
| 2026-05-05 21:06 | 39.61919 | 2.89681 | 2378 ft | 179 kts | 238° |
| 2026-05-05 21:06 | 39.61231 | 2.88358 | 2157 ft | 179 kts | 238° |
| 2026-05-05 21:06 | 39.60557 | 2.86986 | 1945 ft | 177 kts | 240° |
| 2026-05-05 21:07 | 39.59977 | 2.85594 | 1689 ft | 170 kts | 244° |
| 2026-05-05 21:07 | 39.59423 | 2.84337 | 1466 ft | 157 kts | 239° |
| 2026-05-05 21:07 | 39.58866 | 2.83187 | 1288 ft | 142 kts | 239° |
| 2026-05-05 21:07 | 39.58359 | 2.82112 | 1113 ft | 136 kts | 239° |
| 2026-05-05 21:08 | 39.57880 | 2.81093 | 869 ft | 129 kts | 238° |
| 2026-05-05 21:08 | 39.57401 | 2.80108 | 688 ft | 130 kts | 235° |
| 2026-05-05 21:08 | 39.56911 | 2.79126 | 527 ft | 131 kts | 237° |
| 2026-05-05 21:08 | 39.56445 | 2.78107 | 368 ft | 131 kts | 237° |
| 2026-05-05 21:09 | 39.55976 | 2.77100 | 197 ft | 132 kts | 237° |
| 2026-05-05 21:09 | 39.55496 | 2.76083 | 28 ft | 130 kts | 234° |
| 2026-05-05 21:09 | 39.55057 | 2.75174 | 16 ft | 94 kts | 237° |
| 2026-05-05 21:09 | 39.54841 | 2.74702 | 24 ft | 38 kts | 238° |
| 2026-05-05 21:10 | 39.54710 | 2.74414 | 29 ft | 32 kts | 238° |
| 2026-05-05 21:10 | 39.54602 | 2.74178 | 33 ft | 29 kts | 242° |
| 2026-05-05 21:10 | 39.54551 | 2.73941 | 34 ft | 22 kts | 266° |
| 2026-05-05 21:10 | 39.54549 | 2.73788 | 37 ft | 16 kts | 270° |
| 2026-05-05 21:11 | 39.54548 | 2.73712 | 37 ft | 2 kts | 270° |
| 2026-05-05 21:11 | 39.54548 | 2.73688 | 37 ft | 2 kts | 270° |
| 2026-05-05 21:11 | 39.54548 | 2.73658 | 36 ft | 4 kts | 268° |
| 2026-05-05 21:11 | 39.54543 | 2.73620 | 36 ft | 4 kts | 255° |
| 2026-05-05 21:12 | 39.54532 | 2.73584 | 36 ft | 4 kts | 240° |
| 2026-05-05 21:12 | 39.54515 | 2.73552 | 36 ft | 4 kts | 235° |
| 2026-05-05 21:12 | 39.54499 | 2.73521 | 36 ft | 4 kts | 236° |
| 2026-05-05 21:12 | 39.54482 | 2.73489 | 36 ft | 4 kts | 236° |
| 2026-05-05 21:13 | 39.54465 | 2.73453 | 36 ft | 6 kts | 239° |
| 2026-05-05 21:13 | 39.54438 | 2.73394 | 36 ft | 8 kts | 242° |
| 2026-05-05 21:13 | 39.54422 | 2.73355 | 36 ft | 8 kts | 242° |
| 2026-05-05 21:13 | 39.54390 | 2.73285 | 36 ft | 8 kts | 246° |
| 2026-05-05 21:14 | 39.54392 | 2.73225 | 36 ft | 5 kts | 299° |
| 2026-05-05 21:14 | 39.54422 | 2.73197 | 36 ft | 5 kts | 356° |
| 2026-05-05 21:14 | 39.54445 | 2.73219 | 36 ft | 4 kts | 58° |
| 2026-05-05 21:14 | 39.54462 | 2.73254 | 36 ft | 5 kts | 58° |
| 2026-05-05 21:15 | 39.54481 | 2.73296 | 36 ft | 5 kts | 58° |
| 2026-05-05 21:15 | 39.54508 | 2.73328 | 36 ft | 5 kts | 18° |
| 2026-05-05 21:15 | 39.54539 | 2.73327 | 36 ft | 1 kts | 347° |
| 2026-05-05 21:15 | 39.54551 | 2.73323 | 36 ft | 0 kts | 345° |